sensor_id;sensor_type;location;lat;lon;timestamp;P1;durP1;ratioP1;P2;durP2;ratioP2
26574;SDS011;67165;50.256;10.978;2023-06-22T00:02:13;16.27;;;14.32;;
26574;SDS011;67165;50.256;10.978;2023-06-22T00:04:39;16.65;;;14.48;;
26574;SDS011;67165;50.256;10.978;2023-06-22T00:07:05;16.65;;;14.10;;
26574;SDS011;67165;50.256;10.978;2023-06-22T00:09:31;15.63;;;14.00;;
26574;SDS011;67165;50.256;10.978;2023-06-22T00:11:57;19.27;;;14.68;;
26574;SDS011;67165;50.256;10.978;2023-06-22T00:14:22;16.98;;;14.75;;
26574;SDS011;67165;50.256;10.978;2023-06-22T00:16:48;20.70;;;14.88;;
26574;SDS011;67165;50.256;10.978;2023-06-22T00:19:15;15.73;;;13.93;;
26574;SDS011;67165;50.256;10.978;2023-06-22T00:21:40;18.48;;;14.65;;
26574;SDS011;67165;50.256;10.978;2023-06-22T00:24:08;16.55;;;14.82;;
26574;SDS011;67165;50.256;10.978;2023-06-22T00:26:33;20.80;;;15.02;;
26574;SDS011;67165;50.256;10.978;2023-06-22T00:28:59;18.58;;;14.63;;
26574;SDS011;67165;50.256;10.978;2023-06-22T00:31:25;18.80;;;14.52;;
26574;SDS011;67165;50.256;10.978;2023-06-22T00:33:50;18.40;;;14.55;;
26574;SDS011;67165;50.256;10.978;2023-06-22T00:36:16;18.33;;;14.68;;
26574;SDS011;67165;50.256;10.978;2023-06-22T00:38:42;16.52;;;14.93;;
26574;SDS011;67165;50.256;10.978;2023-06-22T00:41:08;17.23;;;14.77;;
26574;SDS011;67165;50.256;10.978;2023-06-22T00:43:34;18.52;;;14.82;;
26574;SDS011;67165;50.256;10.978;2023-06-22T00:46:00;15.82;;;14.13;;
26574;SDS011;67165;50.256;10.978;2023-06-22T00:48:26;18.45;;;16.17;;
26574;SDS011;67165;50.256;10.978;2023-06-22T00:50:52;17.45;;;14.68;;
26574;SDS011;67165;50.256;10.978;2023-06-22T00:53:20;18.30;;;15.20;;
26574;SDS011;67165;50.256;10.978;2023-06-22T00:55:46;18.70;;;15.13;;
26574;SDS011;67165;50.256;10.978;2023-06-22T00:58:12;20.40;;;15.68;;
26574;SDS011;67165;50.256;10.978;2023-06-22T01:00:39;16.15;;;14.50;;
26574;SDS011;67165;50.256;10.978;2023-06-22T01:03:06;21.40;;;15.15;;
26574;SDS011;67165;50.256;10.978;2023-06-22T01:05:35;20.20;;;15.93;;
26574;SDS011;67165;50.256;10.978;2023-06-22T01:10:49;18.60;;;15.40;;
26574;SDS011;67165;50.256;10.978;2023-06-22T01:16:26;19.98;;;16.45;;
26574;SDS011;67165;50.256;10.978;2023-06-22T01:18:55;18.67;;;15.47;;
26574;SDS011;67165;50.256;10.978;2023-06-22T01:21:23;17.40;;;15.32;;
26574;SDS011;67165;50.256;10.978;2023-06-22T01:29:21;18.90;;;15.45;;
26574;SDS011;67165;50.256;10.978;2023-06-22T01:31:49;17.35;;;15.45;;
26574;SDS011;67165;50.256;10.978;2023-06-22T01:34:16;16.77;;;14.82;;
26574;SDS011;67165;50.256;10.978;2023-06-22T01:36:42;18.00;;;16.05;;
26574;SDS011;67165;50.256;10.978;2023-06-22T01:39:09;20.13;;;16.75;;
26574;SDS011;67165;50.256;10.978;2023-06-22T01:41:37;20.40;;;16.23;;
26574;SDS011;67165;50.256;10.978;2023-06-22T01:44:06;19.48;;;15.52;;
26574;SDS011;67165;50.256;10.978;2023-06-22T01:46:35;21.15;;;15.95;;
26574;SDS011;67165;50.256;10.978;2023-06-22T01:49:02;16.92;;;15.13;;
26574;SDS011;67165;50.256;10.978;2023-06-22T01:51:28;18.23;;;15.68;;
26574;SDS011;67165;50.256;10.978;2023-06-22T01:53:55;22.98;;;15.80;;
26574;SDS011;67165;50.256;10.978;2023-06-22T01:56:21;19.40;;;15.45;;
26574;SDS011;67165;50.256;10.978;2023-06-22T01:58:49;23.67;;;16.02;;
26574;SDS011;67165;50.256;10.978;2023-06-22T02:01:25;17.35;;;15.43;;
26574;SDS011;67165;50.256;10.978;2023-06-22T02:04:03;22.17;;;15.85;;
26574;SDS011;67165;50.256;10.978;2023-06-22T02:06:45;18.90;;;16.35;;
26574;SDS011;67165;50.256;10.978;2023-06-22T02:09:14;18.77;;;16.38;;
26574;SDS011;67165;50.256;10.978;2023-06-22T02:11:44;21.08;;;16.23;;
26574;SDS011;67165;50.256;10.978;2023-06-22T02:14:12;18.38;;;16.40;;
26574;SDS011;67165;50.256;10.978;2023-06-22T02:16:38;18.35;;;16.08;;
26574;SDS011;67165;50.256;10.978;2023-06-22T02:19:06;18.38;;;16.38;;
26574;SDS011;67165;50.256;10.978;2023-06-22T02:21:33;17.52;;;15.57;;
26574;SDS011;67165;50.256;10.978;2023-06-22T02:23:59;18.58;;;15.38;;
26574;SDS011;67165;50.256;10.978;2023-06-22T02:26:25;18.58;;;15.48;;
26574;SDS011;67165;50.256;10.978;2023-06-22T02:28:52;18.33;;;15.57;;
26574;SDS011;67165;50.256;10.978;2023-06-22T02:31:18;18.42;;;15.63;;
26574;SDS011;67165;50.256;10.978;2023-06-22T02:33:44;21.08;;;15.90;;
26574;SDS011;67165;50.256;10.978;2023-06-22T02:36:10;17.63;;;15.05;;
26574;SDS011;67165;50.256;10.978;2023-06-22T02:38:38;20.25;;;16.35;;
26574;SDS011;67165;50.256;10.978;2023-06-22T02:41:13;18.15;;;16.25;;
26574;SDS011;67165;50.256;10.978;2023-06-22T02:43:43;18.50;;;15.88;;
26574;SDS011;67165;50.256;10.978;2023-06-22T02:46:11;17.80;;;15.90;;
26574;SDS011;67165;50.256;10.978;2023-06-22T02:48:38;17.15;;;15.43;;
26574;SDS011;67165;50.256;10.978;2023-06-22T02:51:05;17.02;;;15.20;;
26574;SDS011;67165;50.256;10.978;2023-06-22T02:53:31;17.42;;;15.43;;
26574;SDS011;67165;50.256;10.978;2023-06-22T02:55:57;17.25;;;15.50;;
26574;SDS011;67165;50.256;10.978;2023-06-22T02:58:23;18.52;;;16.05;;
26574;SDS011;67165;50.256;10.978;2023-06-22T03:00:49;19.50;;;16.40;;
26574;SDS011;67165;50.256;10.978;2023-06-22T03:03:18;21.67;;;17.05;;
26574;SDS011;67165;50.256;10.978;2023-06-22T03:05:44;20.42;;;17.30;;
26574;SDS011;67165;50.256;10.978;2023-06-22T03:08:10;20.17;;;17.00;;
26574;SDS011;67165;50.256;10.978;2023-06-22T03:10:35;19.90;;;16.92;;
26574;SDS011;67165;50.256;10.978;2023-06-22T03:13:01;22.55;;;17.35;;
26574;SDS011;67165;50.256;10.978;2023-06-22T03:15:28;25.75;;;18.65;;
26574;SDS011;67165;50.256;10.978;2023-06-22T03:17:57;19.83;;;17.17;;
26574;SDS011;67165;50.256;10.978;2023-06-22T03:20:23;19.60;;;17.30;;
26574;SDS011;67165;50.256;10.978;2023-06-22T03:22:50;23.92;;;18.20;;
26574;SDS011;67165;50.256;10.978;2023-06-22T03:25:15;25.45;;;17.92;;
26574;SDS011;67165;50.256;10.978;2023-06-22T03:27:41;22.38;;;18.25;;
26574;SDS011;67165;50.256;10.978;2023-06-22T03:30:09;21.70;;;17.90;;
26574;SDS011;67165;50.256;10.978;2023-06-22T03:32:36;20.55;;;17.70;;
26574;SDS011;67165;50.256;10.978;2023-06-22T03:35:02;20.58;;;18.38;;
26574;SDS011;67165;50.256;10.978;2023-06-22T03:37:28;21.90;;;17.42;;
26574;SDS011;67165;50.256;10.978;2023-06-22T03:39:54;21.10;;;18.27;;
26574;SDS011;67165;50.256;10.978;2023-06-22T03:42:20;23.98;;;19.20;;
26574;SDS011;67165;50.256;10.978;2023-06-22T03:44:46;21.17;;;18.60;;
26574;SDS011;67165;50.256;10.978;2023-06-22T03:47:12;22.73;;;19.25;;
26574;SDS011;67165;50.256;10.978;2023-06-22T03:49:38;22.75;;;19.13;;
26574;SDS011;67165;50.256;10.978;2023-06-22T03:52:04;27.17;;;19.77;;
26574;SDS011;67165;50.256;10.978;2023-06-22T03:54:30;25.30;;;20.77;;
26574;SDS011;67165;50.256;10.978;2023-06-22T03:56:56;21.48;;;18.70;;
26574;SDS011;67165;50.256;10.978;2023-06-22T03:59:22;22.90;;;18.83;;
26574;SDS011;67165;50.256;10.978;2023-06-22T04:01:48;24.67;;;18.92;;
26574;SDS011;67165;50.256;10.978;2023-06-22T04:04:15;19.23;;;16.55;;
26574;SDS011;67165;50.256;10.978;2023-06-22T04:06:42;19.40;;;15.75;;
26574;SDS011;67165;50.256;10.978;2023-06-22T04:09:07;17.05;;;15.27;;
26574;SDS011;67165;50.256;10.978;2023-06-22T04:11:33;18.55;;;15.75;;
26574;SDS011;67165;50.256;10.978;2023-06-22T04:13:59;17.65;;;15.70;;
26574;SDS011;67165;50.256;10.978;2023-06-22T04:16:25;18.20;;;15.40;;
26574;SDS011;67165;50.256;10.978;2023-06-22T04:18:50;19.15;;;16.77;;
26574;SDS011;67165;50.256;10.978;2023-06-22T04:21:16;21.13;;;17.45;;
26574;SDS011;67165;50.256;10.978;2023-06-22T04:23:42;18.92;;;16.10;;
26574;SDS011;67165;50.256;10.978;2023-06-22T04:26:08;21.13;;;17.17;;
26574;SDS011;67165;50.256;10.978;2023-06-22T04:28:34;19.83;;;17.48;;
26574;SDS011;67165;50.256;10.978;2023-06-22T04:31:03;19.52;;;17.02;;
26574;SDS011;67165;50.256;10.978;2023-06-22T04:33:29;20.10;;;16.73;;
26574;SDS011;67165;50.256;10.978;2023-06-22T04:35:56;21.10;;;16.92;;
26574;SDS011;67165;50.256;10.978;2023-06-22T04:38:22;18.48;;;16.58;;
26574;SDS011;67165;50.256;10.978;2023-06-22T04:40:48;21.38;;;17.20;;
26574;SDS011;67165;50.256;10.978;2023-06-22T04:43:14;19.17;;;16.90;;
26574;SDS011;67165;50.256;10.978;2023-06-22T04:45:40;20.90;;;16.70;;
26574;SDS011;67165;50.256;10.978;2023-06-22T04:48:06;18.98;;;15.07;;
26574;SDS011;67165;50.256;10.978;2023-06-22T04:50:33;18.83;;;14.52;;
26574;SDS011;67165;50.256;10.978;2023-06-22T04:52:59;18.23;;;13.60;;
26574;SDS011;67165;50.256;10.978;2023-06-22T04:55:24;15.15;;;13.23;;
26574;SDS011;67165;50.256;10.978;2023-06-22T04:57:50;14.00;;;12.10;;
26574;SDS011;67165;50.256;10.978;2023-06-22T05:00:19;15.65;;;12.30;;
26574;SDS011;67165;50.256;10.978;2023-06-22T05:02:47;14.50;;;12.32;;
26574;SDS011;67165;50.256;10.978;2023-06-22T05:05:13;14.82;;;11.25;;
26574;SDS011;67165;50.256;10.978;2023-06-22T05:07:40;12.43;;;11.10;;
26574;SDS011;67165;50.256;10.978;2023-06-22T05:10:10;15.18;;;12.25;;
26574;SDS011;67165;50.256;10.978;2023-06-22T05:12:37;17.35;;;11.23;;
26574;SDS011;67165;50.256;10.978;2023-06-22T05:15:04;16.50;;;11.07;;
26574;SDS011;67165;50.256;10.978;2023-06-22T05:17:31;12.93;;;11.05;;
26574;SDS011;67165;50.256;10.978;2023-06-22T05:19:56;12.73;;;10.98;;
26574;SDS011;67165;50.256;10.978;2023-06-22T05:22:22;11.98;;;10.73;;
26574;SDS011;67165;50.256;10.978;2023-06-22T05:24:48;12.38;;;10.13;;
26574;SDS011;67165;50.256;10.978;2023-06-22T05:27:13;11.95;;;10.02;;
26574;SDS011;67165;50.256;10.978;2023-06-22T05:29:39;16.88;;;10.73;;
26574;SDS011;67165;50.256;10.978;2023-06-22T05:32:05;9.98;;;8.98;;
26574;SDS011;67165;50.256;10.978;2023-06-22T05:34:32;9.73;;;8.70;;
26574;SDS011;67165;50.256;10.978;2023-06-22T05:36:57;11.57;;;8.57;;
26574;SDS011;67165;50.256;10.978;2023-06-22T05:39:26;10.45;;;8.15;;
26574;SDS011;67165;50.256;10.978;2023-06-22T05:41:52;12.90;;;8.60;;
26574;SDS011;67165;50.256;10.978;2023-06-22T05:44:18;10.18;;;7.47;;
26574;SDS011;67165;50.256;10.978;2023-06-22T05:46:44;9.18;;;8.25;;
26574;SDS011;67165;50.256;10.978;2023-06-22T05:49:14;8.90;;;8.00;;
26574;SDS011;67165;50.256;10.978;2023-06-22T05:51:40;9.13;;;7.90;;
26574;SDS011;67165;50.256;10.978;2023-06-22T05:54:09;9.52;;;8.50;;
26574;SDS011;67165;50.256;10.978;2023-06-22T05:56:35;10.60;;;8.55;;
26574;SDS011;67165;50.256;10.978;2023-06-22T05:59:01;10.70;;;8.48;;
26574;SDS011;67165;50.256;10.978;2023-06-22T06:01:26;9.68;;;8.70;;
26574;SDS011;67165;50.256;10.978;2023-06-22T06:03:52;9.68;;;8.52;;
26574;SDS011;67165;50.256;10.978;2023-06-22T06:06:18;13.60;;;8.38;;
26574;SDS011;67165;50.256;10.978;2023-06-22T06:08:46;11.45;;;8.93;;
26574;SDS011;67165;50.256;10.978;2023-06-22T06:11:12;11.45;;;8.52;;
26574;SDS011;67165;50.256;10.978;2023-06-22T06:13:37;9.65;;;8.15;;
26574;SDS011;67165;50.256;10.978;2023-06-22T06:16:03;12.02;;;8.40;;
26574;SDS011;67165;50.256;10.978;2023-06-22T06:18:29;10.65;;;8.48;;
26574;SDS011;67165;50.256;10.978;2023-06-22T06:20:54;9.55;;;8.45;;
26574;SDS011;67165;50.256;10.978;2023-06-22T06:23:20;9.10;;;8.05;;
26574;SDS011;67165;50.256;10.978;2023-06-22T06:25:46;11.05;;;8.65;;
26574;SDS011;67165;50.256;10.978;2023-06-22T06:28:11;12.82;;;8.48;;
26574;SDS011;67165;50.256;10.978;2023-06-22T06:30:37;11.13;;;8.30;;
26574;SDS011;67165;50.256;10.978;2023-06-22T06:33:03;11.88;;;8.30;;
26574;SDS011;67165;50.256;10.978;2023-06-22T06:35:33;11.27;;;8.70;;
26574;SDS011;67165;50.256;10.978;2023-06-22T06:37:59;10.55;;;8.18;;
26574;SDS011;67165;50.256;10.978;2023-06-22T06:40:25;11.68;;;8.75;;
26574;SDS011;67165;50.256;10.978;2023-06-22T06:42:51;9.85;;;8.43;;
26574;SDS011;67165;50.256;10.978;2023-06-22T06:47:42;10.52;;;8.18;;
26574;SDS011;67165;50.256;10.978;2023-06-22T06:50:08;11.27;;;7.72;;
26574;SDS011;67165;50.256;10.978;2023-06-22T06:52:34;9.43;;;8.40;;
26574;SDS011;67165;50.256;10.978;2023-06-22T06:55:00;9.60;;;8.15;;
26574;SDS011;67165;50.256;10.978;2023-06-22T06:57:28;8.75;;;7.85;;
26574;SDS011;67165;50.256;10.978;2023-06-22T06:59:54;10.20;;;7.90;;
26574;SDS011;67165;50.256;10.978;2023-06-22T07:02:21;9.55;;;8.23;;
26574;SDS011;67165;50.256;10.978;2023-06-22T07:04:47;12.68;;;8.35;;
26574;SDS011;67165;50.256;10.978;2023-06-22T07:07:13;10.10;;;7.60;;
26574;SDS011;67165;50.256;10.978;2023-06-22T07:09:39;13.57;;;8.52;;
26574;SDS011;67165;50.256;10.978;2023-06-22T07:12:05;9.38;;;8.35;;
26574;SDS011;67165;50.256;10.978;2023-06-22T07:14:31;9.93;;;7.82;;
26574;SDS011;67165;50.256;10.978;2023-06-22T07:16:57;9.13;;;8.23;;
26574;SDS011;67165;50.256;10.978;2023-06-22T07:19:26;10.05;;;7.25;;
26574;SDS011;67165;50.256;10.978;2023-06-22T07:21:53;10.10;;;7.72;;
26574;SDS011;67165;50.256;10.978;2023-06-22T07:24:22;8.73;;;7.63;;
26574;SDS011;67165;50.256;10.978;2023-06-22T07:26:49;8.40;;;7.63;;
26574;SDS011;67165;50.256;10.978;2023-06-22T07:29:19;9.82;;;7.38;;
26574;SDS011;67165;50.256;10.978;2023-06-22T07:31:46;9.43;;;7.95;;
26574;SDS011;67165;50.256;10.978;2023-06-22T07:34:12;9.20;;;7.80;;
26574;SDS011;67165;50.256;10.978;2023-06-22T07:36:38;9.90;;;7.70;;
26574;SDS011;67165;50.256;10.978;2023-06-22T07:39:04;9.07;;;7.68;;
26574;SDS011;67165;50.256;10.978;2023-06-22T07:41:30;8.02;;;7.22;;
26574;SDS011;67165;50.256;10.978;2023-06-22T07:43:56;10.07;;;8.00;;
26574;SDS011;67165;50.256;10.978;2023-06-22T07:46:22;9.75;;;7.97;;
26574;SDS011;67165;50.256;10.978;2023-06-22T07:48:48;8.00;;;7.30;;
26574;SDS011;67165;50.256;10.978;2023-06-22T07:51:13;10.00;;;7.75;;
26574;SDS011;67165;50.256;10.978;2023-06-22T07:53:40;8.95;;;7.97;;
26574;SDS011;67165;50.256;10.978;2023-06-22T07:56:06;8.35;;;7.45;;
26574;SDS011;67165;50.256;10.978;2023-06-22T07:58:34;9.05;;;7.65;;
26574;SDS011;67165;50.256;10.978;2023-06-22T08:01:00;11.13;;;7.40;;
26574;SDS011;67165;50.256;10.978;2023-06-22T08:03:26;9.23;;;7.38;;
26574;SDS011;67165;50.256;10.978;2023-06-22T08:05:52;9.55;;;8.05;;
26574;SDS011;67165;50.256;10.978;2023-06-22T08:08:17;7.80;;;6.68;;
26574;SDS011;67165;50.256;10.978;2023-06-22T08:10:43;8.05;;;7.25;;
26574;SDS011;67165;50.256;10.978;2023-06-22T08:13:09;9.07;;;7.10;;
26574;SDS011;67165;50.256;10.978;2023-06-22T08:15:35;8.75;;;7.45;;
26574;SDS011;67165;50.256;10.978;2023-06-22T08:18:01;9.73;;;7.78;;
26574;SDS011;67165;50.256;10.978;2023-06-22T08:20:27;7.90;;;7.05;;
26574;SDS011;67165;50.256;10.978;2023-06-22T08:22:53;7.80;;;7.00;;
26574;SDS011;67165;50.256;10.978;2023-06-22T08:25:21;7.47;;;6.45;;
26574;SDS011;67165;50.256;10.978;2023-06-22T08:27:47;7.85;;;6.15;;
26574;SDS011;67165;50.256;10.978;2023-06-22T08:30:13;8.85;;;7.40;;
26574;SDS011;67165;50.256;10.978;2023-06-22T08:32:39;8.10;;;6.90;;
26574;SDS011;67165;50.256;10.978;2023-06-22T08:35:05;9.90;;;6.97;;
26574;SDS011;67165;50.256;10.978;2023-06-22T08:37:33;8.18;;;6.53;;
26574;SDS011;67165;50.256;10.978;2023-06-22T08:40:01;7.70;;;6.93;;
26574;SDS011;67165;50.256;10.978;2023-06-22T08:42:33;7.93;;;6.63;;
26574;SDS011;67165;50.256;10.978;2023-06-22T08:44:59;9.55;;;7.18;;
26574;SDS011;67165;50.256;10.978;2023-06-22T08:47:25;6.88;;;6.18;;
26574;SDS011;67165;50.256;10.978;2023-06-22T08:49:52;8.77;;;6.53;;
26574;SDS011;67165;50.256;10.978;2023-06-22T08:52:18;14.55;;;7.22;;
26574;SDS011;67165;50.256;10.978;2023-06-22T08:54:48;7.25;;;6.55;;
26574;SDS011;67165;50.256;10.978;2023-06-22T08:57:14;7.30;;;6.55;;
26574;SDS011;67165;50.256;10.978;2023-06-22T08:59:40;7.80;;;5.75;;
26574;SDS011;67165;50.256;10.978;2023-06-22T09:02:05;8.90;;;6.93;;
26574;SDS011;67165;50.256;10.978;2023-06-22T09:04:31;7.95;;;6.68;;
26574;SDS011;67165;50.256;10.978;2023-06-22T09:06:59;8.68;;;6.90;;
26574;SDS011;67165;50.256;10.978;2023-06-22T09:09:28;8.40;;;6.90;;
26574;SDS011;67165;50.256;10.978;2023-06-22T09:11:54;7.38;;;6.32;;
26574;SDS011;67165;50.256;10.978;2023-06-22T09:14:19;7.07;;;6.38;;
26574;SDS011;67165;50.256;10.978;2023-06-22T09:16:45;9.07;;;6.38;;
26574;SDS011;67165;50.256;10.978;2023-06-22T09:19:11;7.40;;;6.30;;
26574;SDS011;67165;50.256;10.978;2023-06-22T09:21:37;6.93;;;6.22;;
26574;SDS011;67165;50.256;10.978;2023-06-22T09:24:02;7.60;;;6.38;;
26574;SDS011;67165;50.256;10.978;2023-06-22T09:26:28;6.83;;;6.13;;
26574;SDS011;67165;50.256;10.978;2023-06-22T09:28:54;10.27;;;6.57;;
26574;SDS011;67165;50.256;10.978;2023-06-22T09:31:20;9.23;;;6.05;;
26574;SDS011;67165;50.256;10.978;2023-06-22T09:33:55;8.02;;;6.20;;
26574;SDS011;67165;50.256;10.978;2023-06-22T09:36:21;6.85;;;6.15;;
26574;SDS011;67165;50.256;10.978;2023-06-22T09:38:47;8.85;;;6.78;;
26574;SDS011;67165;50.256;10.978;2023-06-22T09:41:13;7.72;;;6.13;;
26574;SDS011;67165;50.256;10.978;2023-06-22T09:43:39;7.88;;;6.78;;
26574;SDS011;67165;50.256;10.978;2023-06-22T09:46:05;7.57;;;6.78;;
26574;SDS011;67165;50.256;10.978;2023-06-22T09:48:32;8.27;;;6.63;;
26574;SDS011;67165;50.256;10.978;2023-06-22T09:50:57;7.22;;;6.50;;
26574;SDS011;67165;50.256;10.978;2023-06-22T09:53:23;7.70;;;6.50;;
26574;SDS011;67165;50.256;10.978;2023-06-22T09:55:49;11.40;;;7.30;;
26574;SDS011;67165;50.256;10.978;2023-06-22T09:58:14;7.53;;;6.75;;
26574;SDS011;67165;50.256;10.978;2023-06-22T10:00:40;8.43;;;6.65;;
26574;SDS011;67165;50.256;10.978;2023-06-22T10:03:06;8.25;;;6.30;;
26574;SDS011;67165;50.256;10.978;2023-06-22T10:05:32;8.05;;;6.75;;
26574;SDS011;67165;50.256;10.978;2023-06-22T10:07:58;9.70;;;6.75;;
26574;SDS011;67165;50.256;10.978;2023-06-22T10:10:23;10.43;;;6.75;;
26574;SDS011;67165;50.256;10.978;2023-06-22T10:12:56;8.52;;;6.47;;
26574;SDS011;67165;50.256;10.978;2023-06-22T10:15:23;7.30;;;6.55;;
26574;SDS011;67165;50.256;10.978;2023-06-22T10:17:49;8.20;;;6.72;;
26574;SDS011;67165;50.256;10.978;2023-06-22T10:20:15;7.47;;;6.18;;
26574;SDS011;67165;50.256;10.978;2023-06-22T10:22:43;13.73;;;6.97;;
26574;SDS011;67165;50.256;10.978;2023-06-22T10:25:10;6.95;;;6.25;;
26574;SDS011;67165;50.256;10.978;2023-06-22T10:27:36;7.68;;;6.65;;
26574;SDS011;67165;50.256;10.978;2023-06-22T10:30:05;9.65;;;6.60;;
26574;SDS011;67165;50.256;10.978;2023-06-22T10:32:32;6.80;;;6.18;;
26574;SDS011;67165;50.256;10.978;2023-06-22T10:34:58;9.50;;;6.70;;
26574;SDS011;67165;50.256;10.978;2023-06-22T10:37:23;8.82;;;6.35;;
26574;SDS011;67165;50.256;10.978;2023-06-22T10:39:49;7.20;;;6.07;;
26574;SDS011;67165;50.256;10.978;2023-06-22T10:42:15;9.68;;;5.90;;
26574;SDS011;67165;50.256;10.978;2023-06-22T10:44:41;6.60;;;6.00;;
26574;SDS011;67165;50.256;10.978;2023-06-22T10:47:09;7.95;;;6.07;;
26574;SDS011;67165;50.256;10.978;2023-06-22T10:49:36;6.93;;;6.00;;
26574;SDS011;67165;50.256;10.978;2023-06-22T10:52:03;6.70;;;6.00;;
26574;SDS011;67165;50.256;10.978;2023-06-22T10:54:28;6.88;;;6.00;;
26574;SDS011;67165;50.256;10.978;2023-06-22T10:56:54;7.80;;;6.40;;
26574;SDS011;67165;50.256;10.978;2023-06-22T10:59:20;7.20;;;6.32;;
26574;SDS011;67165;50.256;10.978;2023-06-22T11:01:46;6.40;;;5.80;;
26574;SDS011;67165;50.256;10.978;2023-06-22T11:04:12;6.60;;;6.00;;
26574;SDS011;67165;50.256;10.978;2023-06-22T11:06:37;11.55;;;5.90;;
26574;SDS011;67165;50.256;10.978;2023-06-22T11:09:03;7.90;;;6.05;;
26574;SDS011;67165;50.256;10.978;2023-06-22T11:11:29;6.53;;;5.68;;
26574;SDS011;67165;50.256;10.978;2023-06-22T11:13:55;9.20;;;6.05;;
26574;SDS011;67165;50.256;10.978;2023-06-22T11:16:20;8.85;;;5.90;;
26574;SDS011;67165;50.256;10.978;2023-06-22T11:18:46;8.35;;;6.03;;
26574;SDS011;67165;50.256;10.978;2023-06-22T11:21:11;5.53;;;4.97;;
26574;SDS011;67165;50.256;10.978;2023-06-22T11:23:37;8.25;;;5.97;;
26574;SDS011;67165;50.256;10.978;2023-06-22T11:26:03;7.32;;;5.90;;
26574;SDS011;67165;50.256;10.978;2023-06-22T11:28:28;5.97;;;5.38;;
26574;SDS011;67165;50.256;10.978;2023-06-22T11:30:54;10.63;;;5.93;;
26574;SDS011;67165;50.256;10.978;2023-06-22T11:33:19;7.55;;;6.60;;
26574;SDS011;67165;50.256;10.978;2023-06-22T11:35:45;9.95;;;6.45;;
26574;SDS011;67165;50.256;10.978;2023-06-22T11:38:11;6.90;;;5.93;;
26574;SDS011;67165;50.256;10.978;2023-06-22T11:40:36;10.25;;;6.22;;
26574;SDS011;67165;50.256;10.978;2023-06-22T11:43:02;7.32;;;5.78;;
26574;SDS011;67165;50.256;10.978;2023-06-22T11:45:28;6.95;;;5.95;;
26574;SDS011;67165;50.256;10.978;2023-06-22T11:47:53;7.78;;;5.90;;
26574;SDS011;67165;50.256;10.978;2023-06-22T11:50:19;9.10;;;6.22;;
26574;SDS011;67165;50.256;10.978;2023-06-22T11:52:44;9.02;;;6.25;;
26574;SDS011;67165;50.256;10.978;2023-06-22T11:55:10;9.18;;;6.38;;
26574;SDS011;67165;50.256;10.978;2023-06-22T11:57:36;5.93;;;5.43;;
26574;SDS011;67165;50.256;10.978;2023-06-22T12:00:04;8.15;;;5.55;;
26574;SDS011;67165;50.256;10.978;2023-06-22T12:02:42;9.93;;;5.97;;
26574;SDS011;67165;50.256;10.978;2023-06-22T12:05:11;8.68;;;5.47;;
26574;SDS011;67165;50.256;10.978;2023-06-22T12:07:37;7.32;;;5.38;;
26574;SDS011;67165;50.256;10.978;2023-06-22T12:10:03;6.50;;;4.97;;
26574;SDS011;67165;50.256;10.978;2023-06-22T12:12:29;7.53;;;5.65;;
26574;SDS011;67165;50.256;10.978;2023-06-22T12:14:54;8.98;;;5.75;;
26574;SDS011;67165;50.256;10.978;2023-06-22T12:17:20;7.82;;;5.82;;
26574;SDS011;67165;50.256;10.978;2023-06-22T12:19:46;6.55;;;5.65;;
26574;SDS011;67165;50.256;10.978;2023-06-22T12:22:11;8.45;;;5.65;;
26574;SDS011;67165;50.256;10.978;2023-06-22T12:24:37;6.78;;;5.60;;
26574;SDS011;67165;50.256;10.978;2023-06-22T12:27:03;6.55;;;5.80;;
26574;SDS011;67165;50.256;10.978;2023-06-22T12:29:29;8.35;;;5.32;;
26574;SDS011;67165;50.256;10.978;2023-06-22T12:31:55;10.05;;;6.15;;
26574;SDS011;67165;50.256;10.978;2023-06-22T12:34:20;6.38;;;5.40;;
26574;SDS011;67165;50.256;10.978;2023-06-22T12:36:46;8.50;;;5.60;;
26574;SDS011;67165;50.256;10.978;2023-06-22T12:39:14;6.85;;;5.22;;
26574;SDS011;67165;50.256;10.978;2023-06-22T12:41:40;7.22;;;5.35;;
26574;SDS011;67165;50.256;10.978;2023-06-22T12:44:06;8.70;;;6.03;;
26574;SDS011;67165;50.256;10.978;2023-06-22T12:46:31;9.32;;;6.30;;
26574;SDS011;67165;50.256;10.978;2023-06-22T12:49:02;8.77;;;5.82;;
26574;SDS011;67165;50.256;10.978;2023-06-22T12:51:29;7.63;;;5.63;;
26574;SDS011;67165;50.256;10.978;2023-06-22T12:53:55;6.72;;;5.57;;
26574;SDS011;67165;50.256;10.978;2023-06-22T12:56:21;6.55;;;5.85;;
26574;SDS011;67165;50.256;10.978;2023-06-22T12:58:46;7.57;;;5.85;;
26574;SDS011;67165;50.256;10.978;2023-06-22T13:01:12;7.13;;;6.00;;
26574;SDS011;67165;50.256;10.978;2023-06-22T13:03:37;11.57;;;5.55;;
26574;SDS011;67165;50.256;10.978;2023-06-22T13:06:03;9.30;;;6.10;;
26574;SDS011;67165;50.256;10.978;2023-06-22T13:08:29;7.18;;;5.72;;
26574;SDS011;67165;50.256;10.978;2023-06-22T13:10:55;9.55;;;6.00;;
26574;SDS011;67165;50.256;10.978;2023-06-22T13:13:23;8.00;;;5.13;;
26574;SDS011;67165;50.256;10.978;2023-06-22T13:15:50;8.98;;;5.80;;
26574;SDS011;67165;50.256;10.978;2023-06-22T13:18:17;8.10;;;5.75;;
26574;SDS011;67165;50.256;10.978;2023-06-22T13:20:43;6.55;;;5.10;;
26574;SDS011;67165;50.256;10.978;2023-06-22T13:23:10;11.55;;;6.20;;
26574;SDS011;67165;50.256;10.978;2023-06-22T13:25:36;8.70;;;5.72;;
26574;SDS011;67165;50.256;10.978;2023-06-22T13:28:02;10.40;;;5.95;;
26574;SDS011;67165;50.256;10.978;2023-06-22T13:30:28;10.35;;;5.55;;
26574;SDS011;67165;50.256;10.978;2023-06-22T13:32:54;7.53;;;5.63;;
26574;SDS011;67165;50.256;10.978;2023-06-22T13:35:20;6.03;;;4.90;;
26574;SDS011;67165;50.256;10.978;2023-06-22T13:37:46;11.70;;;5.65;;
26574;SDS011;67165;50.256;10.978;2023-06-22T13:40:12;8.93;;;5.72;;
26574;SDS011;67165;50.256;10.978;2023-06-22T13:42:37;10.20;;;5.10;;
26574;SDS011;67165;50.256;10.978;2023-06-22T13:45:03;8.15;;;5.55;;
26574;SDS011;67165;50.256;10.978;2023-06-22T13:47:30;7.43;;;5.30;;
26574;SDS011;67165;50.256;10.978;2023-06-22T13:49:55;8.02;;;5.75;;
26574;SDS011;67165;50.256;10.978;2023-06-22T13:52:22;9.55;;;5.80;;
26574;SDS011;67165;50.256;10.978;2023-06-22T13:54:48;14.98;;;6.00;;
26574;SDS011;67165;50.256;10.978;2023-06-22T13:57:14;9.65;;;5.38;;
26574;SDS011;67165;50.256;10.978;2023-06-22T13:59:40;7.78;;;4.90;;
26574;SDS011;67165;50.256;10.978;2023-06-22T14:02:05;7.50;;;5.15;;
26574;SDS011;67165;50.256;10.978;2023-06-22T14:04:31;9.75;;;5.30;;
26574;SDS011;67165;50.256;10.978;2023-06-22T14:06:57;9.60;;;5.22;;
26574;SDS011;67165;50.256;10.978;2023-06-22T14:09:23;9.10;;;5.82;;
26574;SDS011;67165;50.256;10.978;2023-06-22T14:11:48;11.98;;;5.75;;
26574;SDS011;67165;50.256;10.978;2023-06-22T14:14:14;8.63;;;5.38;;
26574;SDS011;67165;50.256;10.978;2023-06-22T14:16:40;9.30;;;5.47;;
26574;SDS011;67165;50.256;10.978;2023-06-22T14:19:05;8.23;;;5.65;;
26574;SDS011;67165;50.256;10.978;2023-06-22T14:21:31;7.68;;;5.20;;
26574;SDS011;67165;50.256;10.978;2023-06-22T14:23:56;11.65;;;5.95;;
26574;SDS011;67165;50.256;10.978;2023-06-22T14:26:22;10.40;;;5.80;;
26574;SDS011;67165;50.256;10.978;2023-06-22T14:28:48;9.88;;;5.55;;
26574;SDS011;67165;50.256;10.978;2023-06-22T14:31:15;11.90;;;5.82;;
26574;SDS011;67165;50.256;10.978;2023-06-22T14:33:48;8.45;;;5.25;;